Time;durP1;ratioP1;P1;durP2;ratioP2;P2;SDS_P1;SDS_P2;PMS_P1;PMS_P2;Temp;Humidity;BMP_temperature;BMP_pressure;BME280_temperature;BME280_humidity;BME280_pressure;Samples;Min_cycle;Max_cycle;Signal;HPM_P1;HPM_P2
2023/07/06 00:01:41;;;;;;;0.70;0.40;;;18.90;1.00;;;;;;5139380;27;20430;-62
2023/07/06 00:04:08;;;;;;;0.70;0.40;;;18.90;1.00;;;;;;5139237;27;20472;-61
2023/07/06 00:06:36;;;;;;;1.02;0.40;;;18.80;1.00;;;;;;5139293;27;20863;-62
2023/07/06 00:09:05;;;;;;;0.70;0.40;;;18.90;1.00;;;;;;5139180;27;20422;-62
2023/07/06 00:11:37;;;;;;;0.98;0.30;;;18.90;1.00;;;;;;5139044;27;20475;-62
2023/07/06 00:14:04;;;;;;;0.70;0.40;;;18.80;1.00;;;;;;5139192;27;20422;-61
2023/07/06 00:16:31;;;;;;;1.00;0.40;;;18.80;1.00;;;;;;5138681;27;20479;-61
2023/07/06 00:18:59;;;;;;;0.90;0.50;;;18.70;1.00;;;;;;5137629;27;20411;-62
2023/07/06 00:21:26;;;;;;;1.40;0.40;;;18.70;1.00;;;;;;5137957;27;20430;-62
2023/07/06 00:23:53;;;;;;;0.80;0.40;;;18.60;1.00;;;;;;5139276;27;20423;-61
2023/07/06 00:26:22;;;;;;;2.60;0.40;;;18.60;1.00;;;;;;5139008;27;20826;-62
2023/07/06 00:28:49;;;;;;;0.90;0.50;;;18.70;1.00;;;;;;5138265;27;20423;-62
2023/07/06 00:31:31;;;;;;;0.70;0.40;;;18.60;1.00;;;;;;5138705;27;20866;-62
2023/07/06 00:34:03;;;;;;;0.80;0.50;;;18.60;1.00;;;;;;5138326;27;20779;-62
2023/07/06 00:36:31;;;;;;;1.50;0.40;;;18.60;1.00;;;;;;5138719;27;20441;-63
2023/07/06 00:39:01;;;;;;;0.70;0.40;;;18.60;1.00;;;;;;5139297;27;20430;-63
2023/07/06 00:41:30;;;;;;;1.13;0.50;;;18.60;1.00;;;;;;5138924;27;20499;-60
2023/07/06 00:43:58;;;;;;;0.70;0.40;;;18.70;1.00;;;;;;5138457;27;20422;-61
2023/07/06 00:46:29;;;;;;;0.80;0.40;;;18.60;1.00;;;;;;5138989;27;20838;-63
2023/07/06 00:48:57;;;;;;;1.10;0.40;;;18.60;1.00;;;;;;5138072;27;20415;-61
2023/07/06 00:51:28;;;;;;;0.75;0.40;;;18.60;1.00;;;;;;5138832;27;20418;-61
2023/07/06 00:53:58;;;;;;;1.20;0.40;;;18.50;1.00;;;;;;5138329;27;20450;-61
2023/07/06 00:56:28;;;;;;;0.70;0.40;;;18.50;1.00;;;;;;5138202;27;20422;-61
2023/07/06 00:59:05;;;;;;;1.00;0.40;;;18.50;1.00;;;;;;5137922;27;20429;-62
2023/07/06 01:01:34;;;;;;;0.70;0.40;;;18.50;1.00;;;;;;5137034;27;20925;-62
2023/07/06 01:04:03;;;;;;;0.70;0.40;;;18.50;1.00;;;;;;5137840;27;20415;-61
2023/07/06 01:06:33;;;;;;;0.90;0.40;;;18.30;1.00;;;;;;5138913;27;20453;-62
2023/07/06 01:09:00;;;;;;;1.23;0.40;;;18.30;1.00;;;;;;5138608;27;20494;-62
2023/07/06 01:11:29;;;;;;;1.00;0.50;;;18.20;1.00;;;;;;5138170;27;20766;-63
2023/07/06 01:13:58;;;;;;;1.17;0.40;;;18.20;1.00;;;;;;5138514;27;20575;-62
2023/07/06 01:16:33;;;;;;;0.90;0.40;;;18.20;1.00;;;;;;5138443;27;20818;-61
2023/07/06 01:19:24;;;;;;;1.00;0.45;;;18.20;1.00;;;;;;5137908;27;20623;-62
2023/07/06 01:22:00;;;;;;;0.90;0.40;;;18.10;1.00;;;;;;5138286;27;20729;-62
2023/07/06 01:24:45;;;;;;;0.82;0.50;;;18.00;1.00;;;;;;5138220;27;20560;-61
2023/07/06 01:27:48;;;;;;;0.90;0.40;;;18.00;1.00;;;;;;5137897;27;20426;-61
2023/07/06 01:30:56;;;;;;;0.70;0.40;;;18.00;1.00;;;;;;5130576;27;20431;-62
2023/07/06 01:33:30;;;;;;;1.10;0.40;;;18.00;1.00;;;;;;5137860;27;20426;-61
2023/07/06 01:36:03;;;;;;;1.00;0.40;;;17.90;1.00;;;;;;5137879;27;20471;-62
2023/07/06 01:38:30;;;;;;;0.93;0.50;;;17.90;1.00;;;;;;5135642;27;20501;-62
2023/07/06 01:40:59;;;;;;;0.70;0.40;;;17.80;1.00;;;;;;5137721;27;20434;-62
2023/07/06 01:43:27;;;;;;;0.70;0.40;;;17.80;1.00;;;;;;5136419;27;20427;-62
2023/07/06 01:45:54;;;;;;;0.90;0.50;;;17.80;1.00;;;;;;5137200;27;20710;-62
2023/07/06 01:48:22;;;;;;;0.57;0.40;;;17.70;1.00;;;;;;5134539;27;20431;-62
2023/07/06 01:50:59;;;;;;;1.50;0.43;;;17.70;1.00;;;;;;5135758;27;20862;-61
2023/07/06 01:53:33;;;;;;;0.60;0.40;;;17.60;1.00;;;;;;5137255;27;20848;-61
2023/07/06 01:56:05;;;;;;;1.95;0.47;;;17.70;1.00;;;;;;5137498;27;20429;-62
2023/07/06 01:58:36;;;;;;;1.10;0.45;;;17.90;1.00;;;;;;5137206;27;20422;-61
2023/07/06 02:01:06;;;;;;;0.60;0.40;;;18.00;1.00;;;;;;5134990;27;20426;-61
2023/07/06 02:03:36;;;;;;;1.30;0.50;;;18.00;1.00;;;;;;5136801;27;20446;-62
2023/07/06 02:06:07;;;;;;;1.23;0.47;;;18.00;1.00;;;;;;5137442;27;20459;-61
2023/07/06 02:08:41;;;;;;;0.68;0.40;;;17.90;1.00;;;;;;5137652;27;20433;-62
2023/07/06 02:11:08;;;;;;;3.03;0.50;;;17.90;1.00;;;;;;5136732;27;20826;-61
2023/07/06 02:13:35;;;;;;;0.80;0.40;;;17.90;1.00;;;;;;5137187;27;20429;-62
2023/07/06 02:16:04;;;;;;;0.80;0.43;;;17.90;1.00;;;;;;5136930;27;20834;-63
2023/07/06 02:18:31;;;;;;;0.80;0.50;;;17.70;1.00;;;;;;5137102;27;20422;-62
2023/07/06 02:20:58;;;;;;;0.80;0.50;;;17.80;1.00;;;;;;5136707;27;20503;-63
2023/07/06 02:23:27;;;;;;;0.85;0.50;;;17.90;1.00;;;;;;5137287;27;20906;-62
2023/07/06 02:25:54;;;;;;;0.80;0.40;;;18.00;1.00;;;;;;5118747;27;20429;-61
2023/07/06 02:28:22;;;;;;;0.80;0.40;;;18.00;1.00;;;;;;5136546;27;20797;-61
2023/07/06 02:30:49;;;;;;;0.90;0.40;;;17.80;1.00;;;;;;5136763;27;20471;-62
2023/07/06 02:33:17;;;;;;;0.65;0.40;;;17.70;1.00;;;;;;5136975;27;20426;-62
2023/07/06 02:35:45;;;;;;;0.80;0.50;;;17.70;1.00;;;;;;5137121;27;20769;-62
2023/07/06 02:38:13;;;;;;;0.82;0.50;;;17.60;1.00;;;;;;5136327;27;20483;-62
2023/07/06 02:40:41;;;;;;;0.80;0.50;;;17.50;1.00;;;;;;5136371;27;20431;-63
2023/07/06 02:43:08;;;;;;;1.10;0.50;;;17.40;1.00;;;;;;5136108;27;20426;-60
2023/07/06 02:45:36;;;;;;;1.77;0.50;;;17.40;1.00;;;;;;5136583;27;20767;-61
2023/07/06 02:48:04;;;;;;;1.15;0.50;;;17.40;1.00;;;;;;5136972;27;20441;-61
2023/07/06 02:50:32;;;;;;;0.75;0.40;;;17.40;1.00;;;;;;5136849;27;20479;-62
2023/07/06 02:52:59;;;;;;;1.00;0.50;;;17.50;2.50;;;;;;5135797;27;20419;-62
2023/07/06 02:55:27;;;;;;;0.80;0.45;;;17.50;24.70;;;;;;5136548;27;20857;-61
2023/07/06 02:57:56;;;;;;;0.90;0.55;;;17.40;67.30;;;;;;5136435;27;20458;-62
2023/07/06 03:00:23;;;;;;;1.80;0.50;;;17.40;99.80;;;;;;5136564;27;20427;-61
2023/07/06 03:02:52;;;;;;;0.70;0.50;;;17.40;99.90;;;;;;5134633;27;21186;-61
2023/07/06 03:05:22;;;;;;;1.40;0.50;;;17.30;99.90;;;;;;5135650;27;20722;-61
2023/07/06 03:07:51;;;;;;;1.20;0.50;;;17.40;99.90;;;;;;5135687;27;20624;-61
2023/07/06 03:10:19;;;;;;;1.50;0.60;;;17.30;99.90;;;;;;5135425;27;20449;-60
2023/07/06 03:12:48;;;;;;;1.00;0.50;;;17.30;99.90;;;;;;5135550;27;20525;-62
2023/07/06 03:15:17;;;;;;;1.20;0.40;;;17.20;99.90;;;;;;5135398;27;20483;-61
2023/07/06 03:17:48;;;;;;;1.10;0.45;;;17.20;99.90;;;;;;5135860;27;20429;-61
2023/07/06 03:20:19;;;;;;;0.93;0.40;;;17.10;99.90;;;;;;5135378;27;20761;-61
2023/07/06 03:22:48;;;;;;;0.90;0.50;;;17.00;99.90;;;;;;5134044;27;20470;-61
2023/07/06 03:25:16;;;;;;;0.70;0.50;;;16.90;99.90;;;;;;5133850;27;20760;-62
2023/07/06 03:27:46;;;;;;;0.80;0.50;;;16.90;99.90;;;;;;5134369;27;20421;-62
2023/07/06 03:30:16;;;;;;;1.08;0.50;;;16.90;99.90;;;;;;5134681;27;20430;-62
2023/07/06 03:32:43;;;;;;;0.90;0.60;;;16.80;99.90;;;;;;5135280;28;20481;-62
2023/07/06 03:35:13;;;;;;;1.55;0.40;;;16.90;99.90;;;;;;5134905;28;20426;-62
2023/07/06 03:37:41;;;;;;;1.10;0.50;;;16.90;99.90;;;;;;5133701;28;20422;-61
2023/07/06 03:40:11;;;;;;;1.20;0.50;;;16.90;99.90;;;;;;5133293;28;20418;-61
2023/07/06 03:42:39;;;;;;;0.90;0.50;;;16.90;99.90;;;;;;5134403;28;20473;-62
2023/07/06 03:45:08;;;;;;;2.50;0.60;;;16.80;99.90;;;;;;5134183;28;20426;-61
2023/07/06 03:47:37;;;;;;;1.38;0.60;;;16.80;99.90;;;;;;5133056;28;20717;-61
2023/07/06 03:50:08;;;;;;;1.10;0.50;;;16.80;99.90;;;;;;5133609;28;20800;-60
2023/07/06 03:52:37;;;;;;;1.00;0.60;;;16.80;99.90;;;;;;5134179;28;21531;-61
2023/07/06 03:55:06;;;;;;;2.42;0.50;;;16.80;99.90;;;;;;5135189;28;20926;-62
2023/07/06 03:57:33;;;;;;;0.90;0.50;;;16.80;99.90;;;;;;5134562;28;20501;-63
2023/07/06 04:00:00;;;;;;;1.13;0.50;;;16.80;99.90;;;;;;5135512;28;20429;-62
2023/07/06 04:02:27;;;;;;;1.00;0.50;;;16.80;99.90;;;;;;5135241;28;20423;-61
2023/07/06 04:04:56;;;;;;;0.90;0.40;;;16.80;99.90;;;;;;5135569;28;20429;-62
2023/07/06 04:07:23;;;;;;;1.20;0.60;;;16.80;99.90;;;;;;5135191;28;20803;-61
2023/07/06 04:09:50;;;;;;;1.30;0.50;;;16.90;99.90;;;;;;5135985;28;20493;-61
2023/07/06 04:12:17;;;;;;;3.00;0.60;;;16.90;99.90;;;;;;5135699;28;20434;-62
2023/07/06 04:14:44;;;;;;;0.80;0.50;;;17.00;99.90;;;;;;5135558;28;20419;-62
2023/07/06 04:17:16;;;;;;;0.75;0.50;;;17.00;99.90;;;;;;5135147;28;20425;-61
2023/07/06 04:19:43;;;;;;;1.40;0.50;;;17.00;99.90;;;;;;5135437;27;20432;-62
2023/07/06 04:22:12;;;;;;;1.10;0.50;;;17.00;99.90;;;;;;5134713;28;20491;-62
2023/07/06 04:24:39;;;;;;;1.00;0.50;;;17.10;99.90;;;;;;5137772;27;20422;-61
2023/07/06 04:27:07;;;;;;;0.90;0.50;;;17.00;99.90;;;;;;5138396;27;20418;-62
2023/07/06 04:29:34;;;;;;;0.80;0.50;;;17.00;99.90;;;;;;5138301;27;20859;-63
2023/07/06 04:32:01;;;;;;;1.10;0.50;;;16.90;99.90;;;;;;5138444;27;20762;-64
2023/07/06 04:34:30;;;;;;;2.20;0.50;;;16.80;99.90;;;;;;5138080;27;20426;-63
2023/07/06 04:36:57;;;;;;;1.10;0.50;;;16.80;99.90;;;;;;5139040;27;20410;-63
2023/07/06 04:39:27;;;;;;;0.98;0.50;;;16.90;99.90;;;;;;5138118;27;20445;-63
2023/07/06 04:41:54;;;;;;;1.00;0.60;;;17.10;99.90;;;;;;5139056;27;20483;-63
2023/07/06 04:44:21;;;;;;;1.67;0.60;;;17.20;99.90;;;;;;5137678;27;20487;-64
2023/07/06 04:46:48;;;;;;;2.00;0.60;;;17.10;99.90;;;;;;5137180;27;20831;-63
2023/07/06 04:49:15;;;;;;;0.80;0.50;;;17.10;99.90;;;;;;5135996;27;20517;-63
2023/07/06 04:51:42;;;;;;;1.90;0.60;;;17.10;99.90;;;;;;5135582;27;20422;-64
2023/07/06 04:54:09;;;;;;;1.75;0.50;;;17.00;99.90;;;;;;5136950;27;20427;-63
2023/07/06 04:56:38;;;;;;;1.20;0.60;;;17.10;99.90;;;;;;5136126;27;20453;-63
2023/07/06 04:59:05;;;;;;;1.30;0.60;;;17.10;99.90;;;;;;5135194;27;20429;-63
2023/07/06 05:01:32;;;;;;;0.90;0.50;;;17.30;99.90;;;;;;5137347;27;20459;-65
2023/07/06 05:04:00;;;;;;;1.60;0.60;;;17.40;99.90;;;;;;5137342;27;20449;-63
2023/07/06 05:06:27;;;;;;;1.00;0.60;;;17.50;99.90;;;;;;5135846;27;20751;-63
2023/07/06 05:08:54;;;;;;;1.00;0.60;;;17.50;99.90;;;;;;5132671;27;20431;-63
2023/07/06 05:11:21;;;;;;;1.00;0.52;;;17.50;99.90;;;;;;5133796;27;20426;-63
2023/07/06 05:13:49;;;;;;;1.30;0.90;;;17.40;99.90;;;;;;5134563;27;20516;-62
2023/07/06 05:16:16;;;;;;;0.90;0.60;;;17.30;99.90;;;;;;5134593;27;20504;-63
2023/07/06 05:18:44;;;;;;;0.98;0.50;;;17.20;99.90;;;;;;5134196;27;20418;-64
2023/07/06 05:21:11;;;;;;;1.08;0.50;;;17.10;99.90;;;;;;5134749;27;20513;-63
2023/07/06 05:23:38;;;;;;;2.00;0.50;;;17.10;99.90;;;;;;5132945;27;20430;-63
2023/07/06 05:26:05;;;;;;;0.90;0.50;;;17.20;99.90;;;;;;5135150;27;20427;-63
2023/07/06 05:28:32;;;;;;;1.40;0.90;;;17.20;99.90;;;;;;5135662;27;20423;-63
2023/07/06 05:31:03;;;;;;;1.10;0.50;;;17.20;99.90;;;;;;5134677;27;20422;-63
2023/07/06 05:33:30;;;;;;;2.00;0.50;;;17.30;99.90;;;;;;5133536;27;20413;-63
2023/07/06 05:35:57;;;;;;;1.90;0.50;;;17.40;99.90;;;;;;5132374;27;20450;-61
2023/07/06 05:38:25;;;;;;;0.90;0.50;;;17.40;99.90;;;;;;5135216;27;20834;-61
2023/07/06 05:40:52;;;;;;;1.20;0.50;;;17.50;99.90;;;;;;5133570;27;20430;-61
2023/07/06 05:43:21;;;;;;;1.10;0.50;;;17.50;83.70;;;;;;5132171;27;20419;-61
2023/07/06 05:45:48;;;;;;;1.90;0.40;;;17.60;27.20;;;;;;5130148;27;20413;-64
2023/07/06 05:48:18;;;;;;;0.70;0.50;;;17.60;4.80;;;;;;5132553;27;20418;-63
2023/07/06 05:50:45;;;;;;;1.90;0.60;;;17.60;15.60;;;;;;5128856;27;20812;-63
2023/07/06 05:53:12;;;;;;;0.90;0.50;;;17.60;33.90;;;;;;5124017;27;20506;-63
2023/07/06 05:55:40;;;;;;;0.75;0.40;;;17.60;46.90;;;;;;5133597;27;20424;-64
2023/07/06 05:58:07;;;;;;;0.90;0.50;;;17.70;48.20;;;;;;5132487;27;20422;-62
2023/07/06 06:00:36;;;;;;;1.15;0.40;;;17.70;45.50;;;;;;5131077;27;20422;-62
2023/07/06 06:03:04;;;;;;;0.77;0.40;;;17.80;36.80;;;;;;5134692;27;20429;-60
2023/07/06 06:05:33;;;;;;;1.07;0.50;;;18.00;49.90;;;;;;5133675;27;20429;-59
2023/07/06 06:08:01;;;;;;;2.22;0.50;;;18.20;10.00;;;;;;5131162;27;20437;-59
2023/07/06 06:10:31;;;;;;;0.70;0.40;;;18.40;2.20;;;;;;5130190;27;20426;-59
2023/07/06 06:12:58;;;;;;;1.00;0.60;;;18.60;1.00;;;;;;5132498;27;20418;-61
2023/07/06 06:15:27;;;;;;;0.90;0.60;;;18.70;1.00;;;;;;5133425;27;20465;-60
2023/07/06 06:17:54;;;;;;;2.30;0.70;;;18.60;1.00;;;;;;5132595;27;20454;-62
2023/07/06 06:20:22;;;;;;;2.20;0.70;;;18.70;12.70;;;;;;5131742;27;20474;-60
2023/07/06 06:22:51;;;;;;;1.90;0.70;;;18.80;4.20;;;;;;5132933;27;20517;-59
2023/07/06 06:25:18;;;;;;;1.50;0.60;;;18.90;1.00;;;;;;5118549;27;20416;-60
2023/07/06 06:27:46;;;;;;;1.90;0.70;;;18.80;1.00;;;;;;5116102;27;20434;-60
2023/07/06 06:30:16;;;;;;;1.00;0.60;;;18.80;1.00;;;;;;5133884;27;20426;-60
2023/07/06 06:32:43;;;;;;;1.70;0.63;;;18.80;1.00;;;;;;5134083;27;20454;-60
2023/07/06 06:35:23;;;;;;;1.42;0.70;;;18.80;1.00;;;;;;5134856;27;20723;-60
2023/07/06 06:37:52;;;;;;;1.10;0.60;;;19.00;1.00;;;;;;5133411;27;20433;-60
2023/07/06 06:40:20;;;;;;;1.30;0.60;;;19.10;1.00;;;;;;5133605;27;20780;-60
2023/07/06 06:42:48;;;;;;;1.90;0.60;;;19.30;1.00;;;;;;5133294;27;20545;-60
2023/07/06 06:45:15;;;;;;;2.00;0.70;;;19.30;1.00;;;;;;5135359;27;20462;-60
2023/07/06 06:47:42;;;;;;;1.50;0.63;;;19.50;1.00;;;;;;5132685;27;20819;-60
2023/07/06 06:50:11;;;;;;;0.90;0.50;;;19.50;1.00;;;;;;5134069;27;20494;-59
2023/07/06 06:52:39;;;;;;;2.22;0.70;;;19.60;1.00;;;;;;5133639;27;20434;-60
2023/07/06 06:55:08;;;;;;;1.00;0.60;;;19.80;1.00;;;;;;5134407;27;20428;-60
2023/07/06 06:57:35;;;;;;;1.55;0.60;;;19.90;1.00;;;;;;5132935;27;20410;-59
2023/07/06 07:00:06;;;;;;;1.60;0.60;;;19.90;1.00;;;;;;5132758;27;20452;-58
2023/07/06 07:02:33;;;;;;;1.40;0.57;;;20.00;1.00;;;;;;5131661;27;20746;-60
2023/07/06 07:05:00;;;;;;;1.25;0.60;;;19.90;1.00;;;;;;5134426;27;20436;-58
2023/07/06 07:07:27;;;;;;;0.88;0.50;;;19.80;1.00;;;;;;5132069;27;20430;-59
2023/07/06 07:09:55;;;;;;;2.20;0.50;;;19.70;1.00;;;;;;5130558;27;20761;-59
2023/07/06 07:12:25;;;;;;;1.10;0.50;;;19.80;1.00;;;;;;5131201;27;20717;-60
2023/07/06 07:14:53;;;;;;;0.85;0.50;;;20.00;1.00;;;;;;5130919;27;20483;-59
2023/07/06 07:17:22;;;;;;;2.30;0.60;;;20.10;1.00;;;;;;5131706;27;20473;-59
2023/07/06 07:19:51;;;;;;;1.73;0.63;;;20.20;1.00;;;;;;5129571;27;20514;-58
2023/07/06 07:22:18;;;;;;;0.90;0.50;;;20.00;1.00;;;;;;5129536;27;20514;-59
2023/07/06 07:24:47;;;;;;;1.40;0.50;;;20.20;1.00;;;;;;5131147;27;20906;-58
2023/07/06 07:27:14;;;;;;;0.88;0.50;;;20.30;1.00;;;;;;5130638;27;20511;-59
2023/07/06 07:29:43;;;;;;;0.93;0.50;;;20.30;1.00;;;;;;5133188;27;21115;-58
2023/07/06 07:32:10;;;;;;;1.20;0.55;;;20.30;1.00;;;;;;5132642;27;20465;-59
2023/07/06 07:34:37;;;;;;;0.70;0.40;;;20.50;1.00;;;;;;5132416;28;20711;-59
2023/07/06 07:37:07;;;;;;;0.90;0.50;;;20.50;1.00;;;;;;5131222;28;20857;-59
2023/07/06 07:39:34;;;;;;;1.30;0.40;;;20.70;1.00;;;;;;5131096;28;20418;-58
2023/07/06 07:42:02;;;;;;;1.10;0.50;;;20.70;1.00;;;;;;5130249;28;20485;-57
2023/07/06 07:44:29;;;;;;;1.10;0.60;;;20.80;1.00;;;;;;5131627;28;20785;-59
2023/07/06 07:46:58;;;;;;;1.20;0.40;;;20.50;1.00;;;;;;5131709;28;21018;-58
2023/07/06 07:49:25;;;;;;;1.40;0.50;;;20.60;1.00;;;;;;5131629;28;20484;-58
2023/07/06 07:51:52;;;;;;;0.80;0.50;;;20.70;1.00;;;;;;5132650;28;20422;-58
2023/07/06 07:54:20;;;;;;;0.80;0.50;;;20.70;1.00;;;;;;5133704;28;20568;-58
2023/07/06 07:56:48;;;;;;;0.90;0.43;;;20.70;1.00;;;;;;5134013;28;20598;-59
2023/07/06 07:59:15;;;;;;;0.80;0.50;;;20.90;1.00;;;;;;5134482;27;20525;-58
2023/07/06 08:01:43;;;;;;;0.88;0.50;;;21.10;1.00;;;;;;5137442;27;20426;-59
2023/07/06 08:04:11;;;;;;;2.07;0.50;;;21.10;1.00;;;;;;5136417;27;20513;-59
2023/07/06 08:06:39;;;;;;;0.88;0.50;;;21.10;1.00;;;;;;5136504;27;20419;-58
2023/07/06 08:09:07;;;;;;;0.80;0.50;;;21.00;1.00;;;;;;5134035;27;20856;-59
2023/07/06 08:11:38;;;;;;;0.90;0.60;;;21.20;1.00;;;;;;5135941;27;20432;-59
2023/07/06 08:14:08;;;;;;;0.90;0.50;;;21.60;1.00;;;;;;5135825;27;20426;-59
2023/07/06 08:16:35;;;;;;;0.80;0.50;;;21.70;1.00;;;;;;5135214;27;20466;-58
2023/07/06 08:19:05;;;;;;;1.30;0.45;;;21.70;1.00;;;;;;5134702;27;20422;-59
2023/07/06 08:21:37;;;;;;;1.30;0.50;;;21.70;1.00;;;;;;5136180;27;20513;-59
2023/07/06 08:24:04;;;;;;;1.00;0.50;;;21.60;1.00;;;;;;5136766;27;20526;-58
2023/07/06 08:26:32;;;;;;;0.70;0.43;;;21.60;1.00;;;;;;5137126;27;20429;-58
2023/07/06 08:28:59;;;;;;;0.75;0.50;;;21.60;1.00;;;;;;5123435;27;20851;-58
2023/07/06 08:31:26;;;;;;;1.60;0.50;;;21.40;1.00;;;;;;5131616;27;20850;-59
2023/07/06 08:33:54;;;;;;;1.60;0.50;;;21.40;1.00;;;;;;5136020;27;20438;-59
2023/07/06 08:36:21;;;;;;;0.90;0.50;;;21.50;1.00;;;;;;5135707;27;20430;-59
2023/07/06 08:38:50;;;;;;;0.80;0.50;;;21.80;1.00;;;;;;5134088;27;20860;-59
2023/07/06 08:41:29;;;;;;;0.98;0.50;;;22.10;1.00;;;;;;5116558;27;20742;-56
2023/07/06 08:43:58;;;;;;;2.10;0.60;;;22.10;1.00;;;;;;5136586;27;20437;-57
2023/07/06 08:46:27;;;;;;;0.97;0.40;;;22.00;1.00;;;;;;5135968;27;20630;-59
2023/07/06 08:48:54;;;;;;;0.73;0.50;;;22.20;1.00;;;;;;5136417;27;20421;-59
2023/07/06 08:51:25;;;;;;;0.90;0.50;;;22.40;1.00;;;;;;5135359;27;20469;-59
2023/07/06 08:54:01;;;;;;;1.15;0.60;;;22.50;1.00;;;;;;5132928;27;20780;-59
2023/07/06 08:56:30;;;;;;;0.80;0.50;;;22.70;1.00;;;;;;5132744;27;20521;-59
2023/07/06 08:59:00;;;;;;;2.17;0.50;;;22.80;1.00;;;;;;5132405;27;20429;-59
2023/07/06 09:01:30;;;;;;;1.10;0.60;;;23.00;1.00;;;;;;5132208;27;20430;-59
2023/07/06 09:04:01;;;;;;;1.02;0.40;;;23.10;1.00;;;;;;5133310;27;20430;-58
2023/07/06 09:06:29;;;;;;;2.00;1.30;;;23.10;1.00;;;;;;5135503;27;20521;-60
2023/07/06 09:09:03;;;;;;;3.00;0.60;;;23.20;1.00;;;;;;5133108;27;20888;-58
2023/07/06 09:11:31;;;;;;;6.80;0.55;;;23.30;1.00;;;;;;5134821;27;20437;-60
2023/07/06 09:14:00;;;;;;;0.90;0.50;;;23.20;1.00;;;;;;5133440;27;20426;-59
2023/07/06 09:16:28;;;;;;;0.88;0.40;;;23.30;1.00;;;;;;5136126;27;20797;-59
2023/07/06 09:18:56;;;;;;;1.00;0.60;;;23.60;1.00;;;;;;5134479;27;20422;-59
2023/07/06 09:21:25;;;;;;;1.20;0.50;;;23.80;1.00;;;;;;5136072;27;20479;-61
2023/07/06 09:23:52;;;;;;;1.40;0.90;;;23.60;1.00;;;;;;5136163;27;20490;-59
2023/07/06 09:26:24;;;;;;;0.80;0.45;;;23.60;1.00;;;;;;5136640;27;20491;-59
2023/07/06 09:29:11;;;;;;;0.90;0.50;;;23.90;1.00;;;;;;5132688;27;20445;-59
2023/07/06 09:31:38;;;;;;;1.52;0.50;;;24.10;1.00;;;;;;5129450;27;20426;-59
2023/07/06 09:34:07;;;;;;;0.95;0.55;;;24.20;1.00;;;;;;5130720;27;20445;-59
2023/07/06 09:36:34;;;;;;;0.80;0.50;;;24.00;1.00;;;;;;5130613;27;20462;-60
2023/07/06 09:39:03;;;;;;;1.10;0.50;;;23.80;1.00;;;;;;5129544;27;20487;-59
2023/07/06 09:41:32;;;;;;;1.10;0.50;;;23.30;1.00;;;;;;5131384;27;20437;-59
2023/07/06 09:44:03;;;;;;;0.80;0.50;;;22.90;1.00;;;;;;5130197;27;20437;-59
2023/07/06 09:46:34;;;;;;;1.20;0.60;;;23.10;1.00;;;;;;5128214;27;20454;-59
2023/07/06 09:49:02;;;;;;;0.80;0.50;;;23.30;1.00;;;;;;5129898;27;20506;-58
2023/07/06 09:51:36;;;;;;;0.90;0.50;;;23.30;1.00;;;;;;5129159;27;20742;-57
2023/07/06 09:54:07;;;;;;;1.40;0.50;;;23.30;1.00;;;;;;5129138;27;20430;-59
2023/07/06 09:56:36;;;;;;;0.90;0.50;;;23.40;1.00;;;;;;5129095;27;20434;-59
2023/07/06 09:59:04;;;;;;;2.17;0.50;;;23.50;1.00;;;;;;5133544;27;20461;-59
2023/07/06 10:01:39;;;;;;;0.70;0.50;;;23.60;1.00;;;;;;5134847;27;20525;-60
2023/07/06 10:04:32;;;;;;;1.20;0.50;;;23.80;1.00;;;;;;5133669;27;20994;-59
2023/07/06 10:07:08;;;;;;;1.80;0.50;;;24.20;1.00;;;;;;5132080;27;20517;-59
2023/07/06 10:09:40;;;;;;;1.00;0.50;;;24.60;1.00;;;;;;5133639;27;20422;-60
2023/07/06 10:12:17;;;;;;;1.10;0.50;;;25.00;1.00;;;;;;5133028;27;20737;-59
2023/07/06 10:14:49;;;;;;;1.40;0.40;;;25.30;1.00;;;;;;5134173;27;20876;-59
2023/07/06 10:17:35;;;;;;;0.80;0.40;;;25.60;1.00;;;;;;5133731;27;20425;-59
2023/07/06 10:20:10;;;;;;;1.83;0.50;;;25.70;1.00;;;;;;5127791;27;20433;-59
2023/07/06 10:22:45;;;;;;;0.77;0.50;;;25.90;1.00;;;;;;5123076;27;20437;-58
2023/07/06 10:25:26;;;;;;;1.70;0.50;;;26.20;1.00;;;;;;5125742;27;20449;-59
2023/07/06 10:28:03;;;;;;;0.73;0.50;;;26.10;1.00;;;;;;5130930;27;20425;-60
2023/07/06 10:30:32;;;;;;;0.80;0.40;;;26.60;1.00;;;;;;5122286;27;20427;-59
2023/07/06 10:33:06;;;;;;;1.20;0.50;;;26.70;1.00;;;;;;5125686;27;20439;-62
2023/07/06 10:35:38;;;;;;;0.80;0.50;;;26.70;1.00;;;;;;5128458;27;20438;-59
2023/07/06 10:38:06;;;;;;;0.90;0.60;;;26.80;1.00;;;;;;5133081;27;20429;-59
2023/07/06 10:40:35;;;;;;;0.70;0.50;;;27.00;1.00;;;;;;5134866;27;20798;-58
2023/07/06 10:43:21;;;;;;;1.00;0.40;;;27.30;1.00;;;;;;5131317;27;20846;-59
2023/07/06 10:45:51;;;;;;;0.90;0.52;;;26.80;1.00;;;;;;5117304;27;20454;-59
2023/07/06 10:48:30;;;;;;;1.00;0.40;;;25.50;1.00;;;;;;5128593;27;20500;-58
2023/07/06 10:51:30;;;;;;;1.33;0.50;;;25.30;1.00;;;;;;5112911;27;20462;-58
2023/07/06 10:54:11;;;;;;;0.80;0.50;;;25.40;1.00;;;;;;5048003;28;20698;-58
2023/07/06 10:56:41;;;;;;;0.90;0.50;;;25.30;1.00;;;;;;5049830;28;20785;-58
2023/07/06 10:59:17;;;;;;;1.00;0.60;;;26.00;1.00;;;;;;5098098;27;20772;-58
2023/07/06 11:01:45;;;;;;;0.80;0.50;;;26.80;1.00;;;;;;5132202;27;20845;-58
2023/07/06 11:04:49;;;;;;;0.70;0.50;;;26.80;1.00;;;;;;5132075;27;20461;-58
2023/07/06 11:07:41;;;;;;;0.80;0.50;;;26.80;1.00;;;;;;5117320;27;20418;-58
2023/07/06 11:10:46;;;;;;;0.70;0.50;;;26.50;1.00;;;;;;5132285;27;20422;-58
2023/07/06 11:13:18;;;;;;;0.80;0.50;;;27.00;1.00;;;;;;5030059;28;20429;-58
2023/07/06 11:16:04;;;;;;;0.73;0.50;;;27.60;1.00;;;;;;5117478;27;20433;-58
2023/07/06 11:18:38;;;;;;;0.90;0.50;;;27.60;1.00;;;;;;5113770;28;20863;-58
2023/07/06 11:21:18;;;;;;;0.90;0.50;;;27.90;1.00;;;;;;5127475;27;20434;-58
2023/07/06 11:23:49;;;;;;;2.15;0.50;;;28.20;1.00;;;;;;5131701;27;20492;-58
2023/07/06 11:26:34;;;;;;;0.90;0.50;;;29.10;1.00;;;;;;5128746;27;20436;-58
2023/07/06 11:29:03;;;;;;;1.80;0.50;;;29.60;1.00;;;;;;5128226;27;20465;-56
2023/07/06 11:31:43;;;;;;;1.00;0.50;;;29.60;1.00;;;;;;5132613;27;20437;-58
2023/07/06 11:34:21;;;;;;;0.90;0.50;;;28.90;1.00;;;;;;5132884;27;20415;-59
2023/07/06 11:36:55;;;;;;;1.20;0.50;;;27.80;1.00;;;;;;5120036;28;20822;-59
2023/07/06 11:39:30;;;;;;;0.95;0.50;;;27.20;1.00;;;;;;5132032;27;20738;-59
2023/07/06 11:41:59;;;;;;;1.50;0.50;;;27.00;1.00;;;;;;5130927;27;20418;-59
2023/07/06 11:44:39;;;;;;;1.00;0.50;;;26.30;1.00;;;;;;5130712;27;20429;-59
2023/07/06 11:47:28;;;;;;;0.73;0.50;;;26.20;1.00;;;;;;5132129;27;20477;-59
2023/07/06 11:49:59;;;;;;;0.73;0.50;;;26.10;1.00;;;;;;5132255;27;20471;-59
2023/07/06 11:52:30;;;;;;;0.70;0.50;;;26.10;1.00;;;;;;5133855;27;20423;-59
2023/07/06 11:55:07;;;;;;;1.20;0.50;;;25.90;1.00;;;;;;5133392;27;20411;-58
2023/07/06 11:57:44;;;;;;;0.70;0.50;;;25.90;1.00;;;;;;5132225;27;20425;-58
2023/07/06 12:00:22;;;;;;;0.85;0.50;;;26.00;1.00;;;;;;5131212;27;20661;-58
2023/07/06 12:02:59;;;;;;;1.10;0.50;;;26.70;1.00;;;;;;5130255;27;20727;-59
2023/07/06 12:05:29;;;;;;;1.27;0.50;;;27.60;1.00;;;;;;5132069;27;20433;-59
2023/07/06 12:07:58;;;;;;;0.90;0.50;;;28.00;1.00;;;;;;5131681;27;20434;-63
2023/07/06 12:10:26;;;;;;;0.85;0.50;;;28.40;1.00;;;;;;5131185;27;20426;-63
2023/07/06 12:12:54;;;;;;;1.10;0.50;;;28.40;1.00;;;;;;5130407;27;20855;-63
2023/07/06 12:15:23;;;;;;;0.83;0.50;;;28.60;1.00;;;;;;5128433;27;20414;-63
2023/07/06 12:17:55;;;;;;;0.77;0.40;;;28.80;1.00;;;;;;5128893;27;20426;-62
2023/07/06 12:20:23;;;;;;;0.80;0.50;;;28.80;1.00;;;;;;5130618;27;20426;-63
2023/07/06 12:22:52;;;;;;;2.10;0.60;;;28.90;1.00;;;;;;5131069;27;20498;-63
2023/07/06 12:25:20;;;;;;;0.90;0.50;;;29.10;1.00;;;;;;5131502;27;20488;-63
2023/07/06 12:27:47;;;;;;;0.80;0.50;;;29.20;1.00;;;;;;5131378;27;20414;-64
2023/07/06 12:30:17;;;;;;;0.80;0.50;;;29.50;1.00;;;;;;5131106;27;20711;-61
2023/07/06 12:32:46;;;;;;;0.95;0.50;;;29.60;1.00;;;;;;5130821;27;20426;-62
2023/07/06 12:35:15;;;;;;;0.80;0.50;;;29.60;1.00;;;;;;5132420;27;20458;-62
2023/07/06 12:37:45;;;;;;;1.30;0.50;;;29.90;1.00;;;;;;5131905;27;20854;-62
2023/07/06 12:40:21;;;;;;;0.90;0.60;;;30.30;1.00;;;;;;5130241;28;20737;-60
2023/07/06 12:42:48;;;;;;;1.20;0.50;;;30.40;1.00;;;;;;5130692;28;20418;-60
2023/07/06 12:45:20;;;;;;;0.70;0.50;;;30.60;1.00;;;;;;5132658;27;20433;-59
2023/07/06 12:47:55;;;;;;;1.10;0.50;;;30.60;1.00;;;;;;5135460;27;20479;-60
2023/07/06 12:50:29;;;;;;;1.80;0.50;;;29.50;1.00;;;;;;5124430;27;20853;-60
2023/07/06 12:53:08;;;;;;;1.63;0.50;;;28.80;1.00;;;;;;5133448;27;20422;-60
2023/07/06 12:55:36;;;;;;;2.85;0.40;;;28.40;1.00;;;;;;5135506;27;20450;-60
2023/07/06 12:58:17;;;;;;;1.00;0.50;;;28.30;1.00;;;;;;5133962;27;20430;-60
2023/07/06 13:00:49;;;;;;;1.00;0.50;;;27.90;1.00;;;;;;5133767;27;20501;-60
2023/07/06 13:03:16;;;;;;;1.65;0.50;;;27.60;1.00;;;;;;5135101;27;20458;-59
2023/07/06 13:05:55;;;;;;;2.37;0.50;;;27.40;1.00;;;;;;5134585;27;20469;-59
2023/07/06 13:08:23;;;;;;;0.90;0.50;;;27.70;1.00;;;;;;5126990;27;20437;-60
2023/07/06 13:11:03;;;;;;;0.90;0.50;;;28.10;1.00;;;;;;5132975;27;20426;-60
2023/07/06 13:13:34;;;;;;;0.80;0.50;;;28.30;1.00;;;;;;5130643;27;20842;-58